Strona główna
METAR-TAF:

METAR-TAF

Lotnisko :

Port lotniczy Bergerac-Dordogne Périgord

Bergerac, Francja

Szerokość geograficzna: 44-49N, Długość geograficzna: 000-31E, wysokość: 51 m

Aktualna obserwacja pogody

Raport powstał 37 minut temu, godzina 17:30 UTC
Wiatr 2 kt z kierunków zmiennych
Temperatura 30°C
Wilgotność 46%
Ciśnienie 1008 hPa
Widzialność 10 km lub więcej
Brak chmur poniżej 1500 m i brak chmur cumulonimbus

METAR: LFBE 251730Z AUTO VRB02KT CAVOK 30/17 Q1008 NOSIG

czas: 20:07 (18:07 UTC)

Prognoza

Raport powstał 7 godziny i 7 minut temu, godzina 11:00 UTC
Prognoza ważna od 25 godzina 12 UTC do 26 godzina 12 UTC
Wiatr 3 kt z kierunków zmiennych
Widzialność 10 km lub więcej
Brak chmur poniżej 1500 m i brak chmur cumulonimbus
Przejściowo
od 26 godzina 06 UTC do 26 godzina 12 UTC
Wiatr 5 kt od południowo-południowy wschód

TAF: LFBE 251100Z 2512/2612 VRB03KT CAVOK TEMPO 2606/2612 16005KT

Obserwacja i prognoza pogody dla ponad 4000 lotnisk (raport METAR i TAF).

Dostępne stacje oznaczono żółtymi i czerwonymi punktami na mapie.

Najedź kursorem aby zobaczyć nazwę stacji.

Kliknij aby zobaczyć obserwacje i prognozy pogody.

Aby zmienić mapę: kliknij na zielony przycisk z czarnym krzyżykiem, aby powiększyć; na zielony przycisk z myślnikiem, aby pomniejszyć; na zielone strzałki, aby przejść do map sąsiednich.


METAR-TAF: